sensor_id;sensor_type;location;lat;lon;timestamp;pressure;altitude;pressure_sealevel;temperature
11321;BMP180;5715;48.234;14.320;2023-07-13T00:02:43;98395.00;;;25.90
11321;BMP180;5715;48.234;14.320;2023-07-13T00:05:31;98392.00;;;26.30
11321;BMP180;5715;48.234;14.320;2023-07-13T00:08:19;98377.00;;;26.20
11321;BMP180;5715;48.234;14.320;2023-07-13T00:11:06;98391.00;;;26.20
11321;BMP180;5715;48.234;14.320;2023-07-13T00:13:54;98394.00;;;26.20
11321;BMP180;5715;48.234;14.320;2023-07-13T00:16:42;98388.00;;;26.30
11321;BMP180;5715;48.234;14.320;2023-07-13T00:19:32;98390.00;;;26.30
11321;BMP180;5715;48.234;14.320;2023-07-13T00:22:20;98406.00;;;26.50
11321;BMP180;5715;48.234;14.320;2023-07-13T00:25:11;98410.00;;;26.60
11321;BMP180;5715;48.234;14.320;2023-07-13T00:28:00;98417.00;;;26.40
11321;BMP180;5715;48.234;14.320;2023-07-13T00:30:48;98418.00;;;26.40
11321;BMP180;5715;48.234;14.320;2023-07-13T00:33:36;98422.00;;;26.60
11321;BMP180;5715;48.234;14.320;2023-07-13T00:36:24;98422.00;;;26.50
11321;BMP180;5715;48.234;14.320;2023-07-13T00:39:12;98414.00;;;26.50
11321;BMP180;5715;48.234;14.320;2023-07-13T00:42:02;98402.00;;;26.60
11321;BMP180;5715;48.234;14.320;2023-07-13T00:47:59;98383.00;;;26.70
11321;BMP180;5715;48.234;14.320;2023-07-13T00:50:52;98375.00;;;26.70
11321;BMP180;5715;48.234;14.320;2023-07-13T00:53:41;98372.00;;;26.70
11321;BMP180;5715;48.234;14.320;2023-07-13T00:56:29;98367.00;;;26.60
11321;BMP180;5715;48.234;14.320;2023-07-13T00:59:21;98352.00;;;26.60
11321;BMP180;5715;48.234;14.320;2023-07-13T01:02:10;98344.00;;;26.90
11321;BMP180;5715;48.234;14.320;2023-07-13T01:04:59;98364.00;;;26.70
11321;BMP180;5715;48.234;14.320;2023-07-13T01:07:50;98387.00;;;26.70
11321;BMP180;5715;48.234;14.320;2023-07-13T01:10:55;98397.00;;;26.60
11321;BMP180;5715;48.234;14.320;2023-07-13T01:13:43;98394.00;;;26.00
11321;BMP180;5715;48.234;14.320;2023-07-13T01:16:34;98401.00;;;26.10
11321;BMP180;5715;48.234;14.320;2023-07-13T01:19:45;98410.00;;;26.30
11321;BMP180;5715;48.234;14.320;2023-07-13T01:22:32;98410.00;;;26.50
11321;BMP180;5715;48.234;14.320;2023-07-13T01:25:20;98418.00;;;26.40
11321;BMP180;5715;48.234;14.320;2023-07-13T01:28:08;98422.00;;;26.50
11321;BMP180;5715;48.234;14.320;2023-07-13T01:30:58;98441.00;;;26.70
11321;BMP180;5715;48.234;14.320;2023-07-13T01:33:46;98438.00;;;26.50
11321;BMP180;5715;48.234;14.320;2023-07-13T01:36:34;98440.00;;;26.30
11321;BMP180;5715;48.234;14.320;2023-07-13T01:39:23;98450.00;;;26.30
11321;BMP180;5715;48.234;14.320;2023-07-13T01:42:10;98457.00;;;26.30
11321;BMP180;5715;48.234;14.320;2023-07-13T01:44:58;98452.00;;;26.40
11321;BMP180;5715;48.234;14.320;2023-07-13T01:47:45;98450.00;;;26.40
11321;BMP180;5715;48.234;14.320;2023-07-13T01:50:34;98448.00;;;26.30
11321;BMP180;5715;48.234;14.320;2023-07-13T01:53:22;98457.00;;;26.50
11321;BMP180;5715;48.234;14.320;2023-07-13T01:56:09;98464.00;;;26.20
11321;BMP180;5715;48.234;14.320;2023-07-13T01:58:57;98463.00;;;26.30
11321;BMP180;5715;48.234;14.320;2023-07-13T02:01:45;98462.00;;;26.30
11321;BMP180;5715;48.234;14.320;2023-07-13T02:04:33;98458.00;;;26.60
11321;BMP180;5715;48.234;14.320;2023-07-13T02:07:23;98455.00;;;26.50
11321;BMP180;5715;48.234;14.320;2023-07-13T02:10:11;98457.00;;;26.30
11321;BMP180;5715;48.234;14.320;2023-07-13T02:12:59;98457.00;;;26.50
11321;BMP180;5715;48.234;14.320;2023-07-13T02:15:50;98466.00;;;26.60
11321;BMP180;5715;48.234;14.320;2023-07-13T02:18:38;98468.00;;;26.80
11321;BMP180;5715;48.234;14.320;2023-07-13T02:21:25;98474.00;;;26.60
11321;BMP180;5715;48.234;14.320;2023-07-13T02:24:13;98460.00;;;26.60
11321;BMP180;5715;48.234;14.320;2023-07-13T02:27:05;98469.00;;;26.60
11321;BMP180;5715;48.234;14.320;2023-07-13T02:29:53;98470.00;;;26.60
11321;BMP180;5715;48.234;14.320;2023-07-13T02:32:40;98459.00;;;27.00
11321;BMP180;5715;48.234;14.320;2023-07-13T02:35:28;98464.00;;;26.90
11321;BMP180;5715;48.234;14.320;2023-07-13T02:38:16;98471.00;;;27.10
11321;BMP180;5715;48.234;14.320;2023-07-13T02:41:06;98465.00;;;27.20
11321;BMP180;5715;48.234;14.320;2023-07-13T02:43:54;98458.00;;;27.20
11321;BMP180;5715;48.234;14.320;2023-07-13T02:46:50;98457.00;;;27.30
11321;BMP180;5715;48.234;14.320;2023-07-13T02:49:37;98456.00;;;27.30
11321;BMP180;5715;48.234;14.320;2023-07-13T02:52:26;98440.00;;;27.30
11321;BMP180;5715;48.234;14.320;2023-07-13T02:55:14;98440.00;;;27.30
11321;BMP180;5715;48.234;14.320;2023-07-13T02:58:02;98427.00;;;27.20
11321;BMP180;5715;48.234;14.320;2023-07-13T03:00:49;98418.00;;;27.20
11321;BMP180;5715;48.234;14.320;2023-07-13T03:03:38;98411.00;;;27.20
11321;BMP180;5715;48.234;14.320;2023-07-13T03:06:25;98413.00;;;27.20
11321;BMP180;5715;48.234;14.320;2023-07-13T03:09:17;98416.00;;;27.10
11321;BMP180;5715;48.234;14.320;2023-07-13T03:12:05;98418.00;;;27.20
11321;BMP180;5715;48.234;14.320;2023-07-13T03:14:53;98415.00;;;27.00
11321;BMP180;5715;48.234;14.320;2023-07-13T03:17:40;98418.00;;;27.00
11321;BMP180;5715;48.234;14.320;2023-07-13T03:20:28;98416.00;;;27.00
11321;BMP180;5715;48.234;14.320;2023-07-13T03:23:15;98424.00;;;27.00
11321;BMP180;5715;48.234;14.320;2023-07-13T03:26:12;98424.00;;;27.00
11321;BMP180;5715;48.234;14.320;2023-07-13T03:29:01;98418.00;;;27.00
11321;BMP180;5715;48.234;14.320;2023-07-13T03:31:48;98413.00;;;27.00
11321;BMP180;5715;48.234;14.320;2023-07-13T03:34:36;98420.00;;;27.00
11321;BMP180;5715;48.234;14.320;2023-07-13T03:37:24;98423.00;;;27.00
11321;BMP180;5715;48.234;14.320;2023-07-13T03:40:13;98417.00;;;27.10
11321;BMP180;5715;48.234;14.320;2023-07-13T03:43:01;98425.00;;;27.10
11321;BMP180;5715;48.234;14.320;2023-07-13T03:45:49;98414.00;;;27.10
11321;BMP180;5715;48.234;14.320;2023-07-13T03:48:37;98422.00;;;27.20
11321;BMP180;5715;48.234;14.320;2023-07-13T03:51:27;98415.00;;;27.10
11321;BMP180;5715;48.234;14.320;2023-07-13T03:54:14;98417.00;;;27.10
11321;BMP180;5715;48.234;14.320;2023-07-13T03:57:02;98419.00;;;27.10
11321;BMP180;5715;48.234;14.320;2023-07-13T03:59:49;98419.00;;;27.10
11321;BMP180;5715;48.234;14.320;2023-07-13T04:02:37;98415.00;;;27.10
11321;BMP180;5715;48.234;14.320;2023-07-13T04:05:25;98412.00;;;27.20
11321;BMP180;5715;48.234;14.320;2023-07-13T04:08:13;98420.00;;;27.30
11321;BMP180;5715;48.234;14.320;2023-07-13T04:11:03;98419.00;;;27.20
11321;BMP180;5715;48.234;14.320;2023-07-13T04:13:51;98417.00;;;27.10
11321;BMP180;5715;48.234;14.320;2023-07-13T04:16:39;98416.00;;;27.10
11321;BMP180;5715;48.234;14.320;2023-07-13T04:19:27;98420.00;;;27.10
11321;BMP180;5715;48.234;14.320;2023-07-13T04:22:14;98425.00;;;27.30
11321;BMP180;5715;48.234;14.320;2023-07-13T04:25:02;98420.00;;;27.30
11321;BMP180;5715;48.234;14.320;2023-07-13T04:27:53;98423.00;;;27.40
11321;BMP180;5715;48.234;14.320;2023-07-13T04:30:41;98431.00;;;27.40
11321;BMP180;5715;48.234;14.320;2023-07-13T04:33:28;98423.00;;;27.50
11321;BMP180;5715;48.234;14.320;2023-07-13T04:36:16;98429.00;;;27.40
11321;BMP180;5715;48.234;14.320;2023-07-13T04:39:04;98421.00;;;27.50
11321;BMP180;5715;48.234;14.320;2023-07-13T04:41:51;98416.00;;;27.50
11321;BMP180;5715;48.234;14.320;2023-07-13T04:44:39;98414.00;;;27.60
11321;BMP180;5715;48.234;14.320;2023-07-13T04:47:30;98416.00;;;27.50
11321;BMP180;5715;48.234;14.320;2023-07-13T04:50:17;98423.00;;;27.50
11321;BMP180;5715;48.234;14.320;2023-07-13T04:53:10;98421.00;;;27.50
11321;BMP180;5715;48.234;14.320;2023-07-13T04:55:58;98420.00;;;27.50
11321;BMP180;5715;48.234;14.320;2023-07-13T04:58:46;98425.00;;;27.50
11321;BMP180;5715;48.234;14.320;2023-07-13T05:01:33;98417.00;;;27.50
11321;BMP180;5715;48.234;14.320;2023-07-13T05:04:21;98416.00;;;27.60
11321;BMP180;5715;48.234;14.320;2023-07-13T05:07:10;98422.00;;;27.60
11321;BMP180;5715;48.234;14.320;2023-07-13T05:09:59;98427.00;;;27.70
11321;BMP180;5715;48.234;14.320;2023-07-13T05:12:47;98432.00;;;27.70
11321;BMP180;5715;48.234;14.320;2023-07-13T05:15:34;98435.00;;;27.90
11321;BMP180;5715;48.234;14.320;2023-07-13T05:18:22;98428.00;;;27.80
11321;BMP180;5715;48.234;14.320;2023-07-13T05:21:11;98431.00;;;27.80
11321;BMP180;5715;48.234;14.320;2023-07-13T05:23:59;98428.00;;;27.80
11321;BMP180;5715;48.234;14.320;2023-07-13T05:27:06;98432.00;;;27.90
11321;BMP180;5715;48.234;14.320;2023-07-13T05:29:53;98436.00;;;28.00
11321;BMP180;5715;48.234;14.320;2023-07-13T05:32:41;98440.00;;;27.90
11321;BMP180;5715;48.234;14.320;2023-07-13T05:35:29;98441.00;;;27.60
11321;BMP180;5715;48.234;14.320;2023-07-13T05:38:17;98451.00;;;27.30
11321;BMP180;5715;48.234;14.320;2023-07-13T05:41:07;98452.00;;;27.40
11321;BMP180;5715;48.234;14.320;2023-07-13T05:43:55;98444.00;;;27.50
11321;BMP180;5715;48.234;14.320;2023-07-13T05:46:43;98456.00;;;27.10
11321;BMP180;5715;48.234;14.320;2023-07-13T05:49:31;98464.00;;;27.30
11321;BMP180;5715;48.234;14.320;2023-07-13T05:52:18;98459.00;;;27.40
11321;BMP180;5715;48.234;14.320;2023-07-13T05:55:06;98460.00;;;27.50
11321;BMP180;5715;48.234;14.320;2023-07-13T05:57:54;98452.00;;;27.70
11321;BMP180;5715;48.234;14.320;2023-07-13T06:00:41;98453.00;;;27.80
11321;BMP180;5715;48.234;14.320;2023-07-13T06:03:29;98459.00;;;28.00
11321;BMP180;5715;48.234;14.320;2023-07-13T06:06:17;98445.00;;;28.00
11321;BMP180;5715;48.234;14.320;2023-07-13T06:09:05;98450.00;;;28.10
11321;BMP180;5715;48.234;14.320;2023-07-13T06:11:52;98466.00;;;27.70
11321;BMP180;5715;48.234;14.320;2023-07-13T06:14:40;98459.00;;;27.60
11321;BMP180;5715;48.234;14.320;2023-07-13T06:17:29;98463.00;;;27.60
11321;BMP180;5715;48.234;14.320;2023-07-13T06:20:18;98463.00;;;27.70
11321;BMP180;5715;48.234;14.320;2023-07-13T06:23:05;98464.00;;;27.50
11321;BMP180;5715;48.234;14.320;2023-07-13T06:25:53;98477.00;;;27.60
11321;BMP180;5715;48.234;14.320;2023-07-13T06:28:41;98479.00;;;27.80
11321;BMP180;5715;48.234;14.320;2023-07-13T06:31:28;98482.00;;;27.40
11321;BMP180;5715;48.234;14.320;2023-07-13T06:34:16;98486.00;;;27.50
11321;BMP180;5715;48.234;14.320;2023-07-13T06:37:03;98489.00;;;27.80
11321;BMP180;5715;48.234;14.320;2023-07-13T06:39:51;98503.00;;;27.80
11321;BMP180;5715;48.234;14.320;2023-07-13T06:42:38;98498.00;;;27.80
11321;BMP180;5715;48.234;14.320;2023-07-13T06:45:26;98504.00;;;27.40
11321;BMP180;5715;48.234;14.320;2023-07-13T06:48:15;98503.00;;;27.90
11321;BMP180;5715;48.234;14.320;2023-07-13T06:51:03;98496.00;;;28.00
11321;BMP180;5715;48.234;14.320;2023-07-13T06:53:50;98509.00;;;28.10
11321;BMP180;5715;48.234;14.320;2023-07-13T06:56:38;98505.00;;;28.10
11321;BMP180;5715;48.234;14.320;2023-07-13T06:59:25;98507.00;;;28.40
11321;BMP180;5715;48.234;14.320;2023-07-13T07:02:13;98521.00;;;28.30
11321;BMP180;5715;48.234;14.320;2023-07-13T07:05:00;98518.00;;;28.30
11321;BMP180;5715;48.234;14.320;2023-07-13T07:07:54;98525.00;;;28.50
11321;BMP180;5715;48.234;14.320;2023-07-13T07:10:42;98516.00;;;28.50
11321;BMP180;5715;48.234;14.320;2023-07-13T07:13:29;98522.00;;;28.30
11321;BMP180;5715;48.234;14.320;2023-07-13T07:16:18;98522.00;;;28.60
11321;BMP180;5715;48.234;14.320;2023-07-13T07:19:06;98528.00;;;28.50
11321;BMP180;5715;48.234;14.320;2023-07-13T07:21:54;98522.00;;;28.60
11321;BMP180;5715;48.234;14.320;2023-07-13T07:24:41;98523.00;;;28.90
11321;BMP180;5715;48.234;14.320;2023-07-13T07:27:29;98526.00;;;28.90
11321;BMP180;5715;48.234;14.320;2023-07-13T07:30:19;98535.00;;;28.70
11321;BMP180;5715;48.234;14.320;2023-07-13T07:33:10;98529.00;;;29.00
11321;BMP180;5715;48.234;14.320;2023-07-13T07:35:57;98522.00;;;29.00
11321;BMP180;5715;48.234;14.320;2023-07-13T07:38:48;98526.00;;;28.90
11321;BMP180;5715;48.234;14.320;2023-07-13T07:41:35;98528.00;;;29.00
11321;BMP180;5715;48.234;14.320;2023-07-13T07:44:26;98530.00;;;28.70
11321;BMP180;5715;48.234;14.320;2023-07-13T07:47:14;98525.00;;;29.50
11321;BMP180;5715;48.234;14.320;2023-07-13T07:50:02;98537.00;;;29.50
11321;BMP180;5715;48.234;14.320;2023-07-13T07:52:51;98541.00;;;29.20
11321;BMP180;5715;48.234;14.320;2023-07-13T07:55:38;98539.00;;;29.10
11321;BMP180;5715;48.234;14.320;2023-07-13T07:58:29;98538.00;;;28.50
11321;BMP180;5715;48.234;14.320;2023-07-13T08:01:19;98539.00;;;28.60
11321;BMP180;5715;48.234;14.320;2023-07-13T08:04:10;98544.00;;;29.40
11321;BMP180;5715;48.234;14.320;2023-07-13T08:07:17;98546.00;;;28.60
11321;BMP180;5715;48.234;14.320;2023-07-13T08:10:06;98544.00;;;29.30
11321;BMP180;5715;48.234;14.320;2023-07-13T08:12:54;98549.00;;;28.90
11321;BMP180;5715;48.234;14.320;2023-07-13T08:15:46;98563.00;;;28.80
11321;BMP180;5715;48.234;14.320;2023-07-13T08:18:34;98554.00;;;28.90
11321;BMP180;5715;48.234;14.320;2023-07-13T08:21:22;98567.00;;;28.30
11321;BMP180;5715;48.234;14.320;2023-07-13T08:24:10;98567.00;;;28.40
11321;BMP180;5715;48.234;14.320;2023-07-13T08:26:58;98561.00;;;28.60
11321;BMP180;5715;48.234;14.320;2023-07-13T08:29:48;98559.00;;;28.80
11321;BMP180;5715;48.234;14.320;2023-07-13T08:32:36;98568.00;;;28.70
11321;BMP180;5715;48.234;14.320;2023-07-13T08:35:25;98577.00;;;29.00
11321;BMP180;5715;48.234;14.320;2023-07-13T08:38:13;98587.00;;;28.60
11321;BMP180;5715;48.234;14.320;2023-07-13T08:41:14;98594.00;;;28.70
11321;BMP180;5715;48.234;14.320;2023-07-13T08:44:15;98603.00;;;28.90
11321;BMP180;5715;48.234;14.320;2023-07-13T08:47:09;98599.00;;;28.70
11321;BMP180;5715;48.234;14.320;2023-07-13T08:49:57;98600.00;;;29.50
11321;BMP180;5715;48.234;14.320;2023-07-13T08:52:46;98600.00;;;29.10
11321;BMP180;5715;48.234;14.320;2023-07-13T08:55:36;98591.00;;;29.10
11321;BMP180;5715;48.234;14.320;2023-07-13T08:58:28;98593.00;;;28.60
11321;BMP180;5715;48.234;14.320;2023-07-13T09:05:02;98607.00;;;29.30
11321;BMP180;5715;48.234;14.320;2023-07-13T09:11:57;98603.00;;;29.00
11321;BMP180;5715;48.234;14.320;2023-07-13T09:14:53;98606.00;;;29.80
11321;BMP180;5715;48.234;14.320;2023-07-13T09:17:50;98607.00;;;29.00
11321;BMP180;5715;48.234;14.320;2023-07-13T09:24:57;98627.00;;;29.50
11321;BMP180;5715;48.234;14.320;2023-07-13T09:27:48;98624.00;;;29.50
11321;BMP180;5715;48.234;14.320;2023-07-13T09:33:50;98615.00;;;29.30
11321;BMP180;5715;48.234;14.320;2023-07-13T09:36:39;98631.00;;;29.60
11321;BMP180;5715;48.234;14.320;2023-07-13T09:39:33;98631.00;;;29.60
11321;BMP180;5715;48.234;14.320;2023-07-13T09:42:23;98631.00;;;29.60
11321;BMP180;5715;48.234;14.320;2023-07-13T09:45:27;98642.00;;;29.40
11321;BMP180;5715;48.234;14.320;2023-07-13T09:48:17;98623.00;;;29.40
11321;BMP180;5715;48.234;14.320;2023-07-13T09:51:14;98631.00;;;29.30
11321;BMP180;5715;48.234;14.320;2023-07-13T09:54:02;98634.00;;;29.30
11321;BMP180;5715;48.234;14.320;2023-07-13T09:57:00;98635.00;;;29.70
11321;BMP180;5715;48.234;14.320;2023-07-13T09:59:51;98636.00;;;29.20
11321;BMP180;5715;48.234;14.320;2023-07-13T10:02:39;98630.00;;;29.50
11321;BMP180;5715;48.234;14.320;2023-07-13T10:05:27;98638.00;;;30.20
11321;BMP180;5715;48.234;14.320;2023-07-13T10:08:28;98634.00;;;30.10
11321;BMP180;5715;48.234;14.320;2023-07-13T10:11:22;98633.00;;;30.10
11321;BMP180;5715;48.234;14.320;2023-07-13T10:14:18;98632.00;;;29.10
11321;BMP180;5715;48.234;14.320;2023-07-13T10:17:13;98629.00;;;29.00
11321;BMP180;5715;48.234;14.320;2023-07-13T10:20:06;98633.00;;;28.90
11321;BMP180;5715;48.234;14.320;2023-07-13T10:23:04;98628.00;;;28.90
11321;BMP180;5715;48.234;14.320;2023-07-13T10:25:52;98633.00;;;29.00
11321;BMP180;5715;48.234;14.320;2023-07-13T10:28:42;98629.00;;;29.00
11321;BMP180;5715;48.234;14.320;2023-07-13T10:31:37;98628.00;;;29.10
11321;BMP180;5715;48.234;14.320;2023-07-13T10:34:26;98626.00;;;29.10
11321;BMP180;5715;48.234;14.320;2023-07-13T10:37:23;98629.00;;;29.70
11321;BMP180;5715;48.234;14.320;2023-07-13T10:40:28;98623.00;;;29.50
11321;BMP180;5715;48.234;14.320;2023-07-13T10:43:35;98636.00;;;29.50
11321;BMP180;5715;48.234;14.320;2023-07-13T10:46:28;98635.00;;;29.50
11321;BMP180;5715;48.234;14.320;2023-07-13T10:49:17;98628.00;;;29.00
11321;BMP180;5715;48.234;14.320;2023-07-13T10:52:05;98629.00;;;29.20
11321;BMP180;5715;48.234;14.320;2023-07-13T10:54:54;98629.00;;;29.10
11321;BMP180;5715;48.234;14.320;2023-07-13T10:57:44;98628.00;;;28.90
11321;BMP180;5715;48.234;14.320;2023-07-13T11:00:32;98638.00;;;28.80
11321;BMP180;5715;48.234;14.320;2023-07-13T11:03:35;98654.00;;;29.50
11321;BMP180;5715;48.234;14.320;2023-07-13T11:06:36;98646.00;;;29.20
11321;BMP180;5715;48.234;14.320;2023-07-13T11:09:40;98647.00;;;29.50
11321;BMP180;5715;48.234;14.320;2023-07-13T11:12:52;98651.00;;;29.60
11321;BMP180;5715;48.234;14.320;2023-07-13T11:15:48;98648.00;;;29.40
11321;BMP180;5715;48.234;14.320;2023-07-13T11:18:35;98639.00;;;29.20
11321;BMP180;5715;48.234;14.320;2023-07-13T11:21:26;98626.00;;;29.50
11321;BMP180;5715;48.234;14.320;2023-07-13T11:24:18;98626.00;;;29.50
11321;BMP180;5715;48.234;14.320;2023-07-13T11:33:49;98608.00;;;29.90
11321;BMP180;5715;48.234;14.320;2023-07-13T11:36:43;98615.00;;;30.20
11321;BMP180;5715;48.234;14.320;2023-07-13T11:39:35;98613.00;;;30.10
11321;BMP180;5715;48.234;14.320;2023-07-13T11:42:24;98610.00;;;30.10
11321;BMP180;5715;48.234;14.320;2023-07-13T11:45:22;98618.00;;;30.10
11321;BMP180;5715;48.234;14.320;2023-07-13T11:48:28;98628.00;;;30.00
11321;BMP180;5715;48.234;14.320;2023-07-13T11:51:30;98626.00;;;29.80
11321;BMP180;5715;48.234;14.320;2023-07-13T11:54:30;98623.00;;;29.10
11321;BMP180;5715;48.234;14.320;2023-07-13T11:57:36;98624.00;;;29.50
11321;BMP180;5715;48.234;14.320;2023-07-13T12:00:34;98623.00;;;29.70
11321;BMP180;5715;48.234;14.320;2023-07-13T12:03:25;98622.00;;;29.60
11321;BMP180;5715;48.234;14.320;2023-07-13T12:06:38;98616.00;;;29.80
11321;BMP180;5715;48.234;14.320;2023-07-13T12:09:28;98609.00;;;29.60
11321;BMP180;5715;48.234;14.320;2023-07-13T12:12:22;98612.00;;;29.60
11321;BMP180;5715;48.234;14.320;2023-07-13T12:15:11;98599.00;;;29.40
11321;BMP180;5715;48.234;14.320;2023-07-13T12:17:59;98603.00;;;30.00
11321;BMP180;5715;48.234;14.320;2023-07-13T12:20:50;98605.00;;;29.60
11321;BMP180;5715;48.234;14.320;2023-07-13T12:23:44;98598.00;;;30.00
11321;BMP180;5715;48.234;14.320;2023-07-13T12:26:34;98591.00;;;30.70
11321;BMP180;5715;48.234;14.320;2023-07-13T12:29:22;98595.00;;;30.50
11321;BMP180;5715;48.234;14.320;2023-07-13T12:32:17;98594.00;;;30.20
11321;BMP180;5715;48.234;14.320;2023-07-13T12:35:17;98581.00;;;30.30
11321;BMP180;5715;48.234;14.320;2023-07-13T12:38:11;98574.00;;;30.90
11321;BMP180;5715;48.234;14.320;2023-07-13T12:41:01;98574.00;;;31.00
11321;BMP180;5715;48.234;14.320;2023-07-13T12:43:48;98572.00;;;31.10
11321;BMP180;5715;48.234;14.320;2023-07-13T12:46:36;98566.00;;;31.20
11321;BMP180;5715;48.234;14.320;2023-07-13T12:49:29;98563.00;;;30.90
11321;BMP180;5715;48.234;14.320;2023-07-13T12:52:33;98559.00;;;31.50
11321;BMP180;5715;48.234;14.320;2023-07-13T12:55:22;98556.00;;;31.30
11321;BMP180;5715;48.234;14.320;2023-07-13T12:58:31;98559.00;;;32.00
11321;BMP180;5715;48.234;14.320;2023-07-13T13:01:29;98548.00;;;31.90
11321;BMP180;5715;48.234;14.320;2023-07-13T13:04:18;98550.00;;;32.40
11321;BMP180;5715;48.234;14.320;2023-07-13T13:07:10;98538.00;;;31.80
11321;BMP180;5715;48.234;14.320;2023-07-13T13:09:57;98541.00;;;31.80
11321;BMP180;5715;48.234;14.320;2023-07-13T13:12:45;98552.00;;;31.80
11321;BMP180;5715;48.234;14.320;2023-07-13T13:15:32;98558.00;;;31.30
11321;BMP180;5715;48.234;14.320;2023-07-13T13:18:23;98555.00;;;31.00
11321;BMP180;5715;48.234;14.320;2023-07-13T13:21:11;98564.00;;;31.40
11321;BMP180;5715;48.234;14.320;2023-07-13T13:23:59;98550.00;;;31.90
11321;BMP180;5715;48.234;14.320;2023-07-13T13:26:49;98543.00;;;31.90
11321;BMP180;5715;48.234;14.320;2023-07-13T13:29:38;98548.00;;;31.70
11321;BMP180;5715;48.234;14.320;2023-07-13T13:32:26;98546.00;;;31.30
11321;BMP180;5715;48.234;14.320;2023-07-13T13:35:18;98548.00;;;31.30
11321;BMP180;5715;48.234;14.320;2023-07-13T13:38:16;98554.00;;;31.50
11321;BMP180;5715;48.234;14.320;2023-07-13T13:41:04;98555.00;;;31.30
11321;BMP180;5715;48.234;14.320;2023-07-13T13:43:52;98562.00;;;30.80
11321;BMP180;5715;48.234;14.320;2023-07-13T13:46:39;98557.00;;;31.00
11321;BMP180;5715;48.234;14.320;2023-07-13T13:49:29;98560.00;;;31.80
11321;BMP180;5715;48.234;14.320;2023-07-13T13:52:17;98559.00;;;31.70
11321;BMP180;5715;48.234;14.320;2023-07-13T13:55:17;98551.00;;;31.30
11321;BMP180;5715;48.234;14.320;2023-07-13T13:58:06;98555.00;;;31.50
11321;BMP180;5715;48.234;14.320;2023-07-13T14:00:53;98556.00;;;31.70
11321;BMP180;5715;48.234;14.320;2023-07-13T14:03:41;98553.00;;;31.70
11321;BMP180;5715;48.234;14.320;2023-07-13T14:06:29;98549.00;;;31.80
11321;BMP180;5715;48.234;14.320;2023-07-13T14:09:20;98547.00;;;31.70
11321;BMP180;5715;48.234;14.320;2023-07-13T14:12:10;98547.00;;;31.50
11321;BMP180;5715;48.234;14.320;2023-07-13T14:14:59;98547.00;;;31.70
11321;BMP180;5715;48.234;14.320;2023-07-13T14:17:46;98542.00;;;32.20
11321;BMP180;5715;48.234;14.320;2023-07-13T14:20:38;98552.00;;;32.40
11321;BMP180;5715;48.234;14.320;2023-07-13T14:23:25;98547.00;;;32.80
11321;BMP180;5715;48.234;14.320;2023-07-13T14:26:18;98546.00;;;32.70
11321;BMP180;5715;48.234;14.320;2023-07-13T14:29:17;98549.00;;;33.20
11321;BMP180;5715;48.234;14.320;2023-07-13T14:32:12;98554.00;;;32.40
11321;BMP180;5715;48.234;14.320;2023-07-13T14:35:00;98553.00;;;32.30
11321;BMP180;5715;48.234;14.320;2023-07-13T14:37:48;98558.00;;;32.10
11321;BMP180;5715;48.234;14.320;2023-07-13T14:40:35;98553.00;;;31.70
11321;BMP180;5715;48.234;14.320;2023-07-13T14:43:24;98555.00;;;32.30
11321;BMP180;5715;48.234;14.320;2023-07-13T14:46:34;98555.00;;;32.30
11321;BMP180;5715;48.234;14.320;2023-07-13T14:49:37;98554.00;;;33.30
11321;BMP180;5715;48.234;14.320;2023-07-13T14:52:25;98546.00;;;33.70
11321;BMP180;5715;48.234;14.320;2023-07-13T14:55:18;98538.00;;;33.70
11321;BMP180;5715;48.234;14.320;2023-07-13T14:58:06;98541.00;;;33.50
11321;BMP180;5715;48.234;14.320;2023-07-13T15:00:54;98540.00;;;33.70
11321;BMP180;5715;48.234;14.320;2023-07-13T15:03:48;98538.00;;;34.10
11321;BMP180;5715;48.234;14.320;2023-07-13T15:07:01;98526.00;;;33.20
11321;BMP180;5715;48.234;14.320;2023-07-13T15:09:51;98528.00;;;33.20
11321;BMP180;5715;48.234;14.320;2023-07-13T15:12:38;98523.00;;;32.70
11321;BMP180;5715;48.234;14.320;2023-07-13T15:15:28;98528.00;;;33.10
11321;BMP180;5715;48.234;14.320;2023-07-13T15:18:21;98539.00;;;33.60
11321;BMP180;5715;48.234;14.320;2023-07-13T15:21:22;98546.00;;;33.30
11321;BMP180;5715;48.234;14.320;2023-07-13T15:24:11;98537.00;;;33.20
11321;BMP180;5715;48.234;14.320;2023-07-13T15:26:58;98537.00;;;33.30
11321;BMP180;5715;48.234;14.320;2023-07-13T15:29:46;98542.00;;;33.40
11321;BMP180;5715;48.234;14.320;2023-07-13T15:32:34;98529.00;;;33.80
11321;BMP180;5715;48.234;14.320;2023-07-13T15:35:25;98524.00;;;33.70
11321;BMP180;5715;48.234;14.320;2023-07-13T15:38:18;98527.00;;;33.60
11321;BMP180;5715;48.234;14.320;2023-07-13T15:41:26;98539.00;;;33.50
11321;BMP180;5715;48.234;14.320;2023-07-13T15:44:30;98546.00;;;32.60
11321;BMP180;5715;48.234;14.320;2023-07-13T15:47:18;98543.00;;;32.80
11321;BMP180;5715;48.234;14.320;2023-07-13T15:50:17;98551.00;;;32.90
11321;BMP180;5715;48.234;14.320;2023-07-13T15:53:05;98559.00;;;32.70
11321;BMP180;5715;48.234;14.320;2023-07-13T15:55:56;98557.00;;;32.30
11321;BMP180;5715;48.234;14.320;2023-07-13T15:58:45;98564.00;;;32.50
11321;BMP180;5715;48.234;14.320;2023-07-13T16:01:33;98569.00;;;33.00
11321;BMP180;5715;48.234;14.320;2023-07-13T16:04:22;98571.00;;;32.50
11321;BMP180;5715;48.234;14.320;2023-07-13T16:07:12;98578.00;;;32.40
11321;BMP180;5715;48.234;14.320;2023-07-13T16:10:01;98571.00;;;32.20
11321;BMP180;5715;48.234;14.320;2023-07-13T16:12:48;98582.00;;;32.20
11321;BMP180;5715;48.234;14.320;2023-07-13T16:15:36;98587.00;;;32.70
11321;BMP180;5715;48.234;14.320;2023-07-13T16:18:24;98589.00;;;32.30
11321;BMP180;5715;48.234;14.320;2023-07-13T16:21:13;98592.00;;;32.90
11321;BMP180;5715;48.234;14.320;2023-07-13T16:24:02;98587.00;;;32.50
11321;BMP180;5715;48.234;14.320;2023-07-13T16:26:53;98591.00;;;32.00
11321;BMP180;5715;48.234;14.320;2023-07-13T16:29:43;98602.00;;;32.00
11321;BMP180;5715;48.234;14.320;2023-07-13T16:32:30;98603.00;;;32.00
11321;BMP180;5715;48.234;14.320;2023-07-13T16:35:25;98602.00;;;32.70
11321;BMP180;5715;48.234;14.320;2023-07-13T16:38:19;98595.00;;;32.20
11321;BMP180;5715;48.234;14.320;2023-07-13T16:41:07;98601.00;;;32.60
11321;BMP180;5715;48.234;14.320;2023-07-13T16:43:57;98601.00;;;32.40
11321;BMP180;5715;48.234;14.320;2023-07-13T16:46:46;98590.00;;;32.30
11321;BMP180;5715;48.234;14.320;2023-07-13T16:49:37;98596.00;;;32.60